EHDV

D15-fa-1 Sea

D15-fa-1 Sea, The Netherlands
METAR EHDV 260255Z AUTO 08016KT 7000 -FZUP SN FEW011/// SCT029/// BKN038/// M00/M07 Q1035 W///H///
Observed Flight Rules
Feb-26 @ 02:55 UTC (38 minutes ago) Marginal Visual Flight Rules
Wind Visibility Clouds Conditions
80° at 16 knots 7,001 meters
  • Few at 1,100' AGL
  • Scattered at 2,900' AGL
  • Broken at 3,800' AGL
  • Snow
  • Unknown precipitation
Temperatures Readings
Current 0°C / 32°F
Dewpoint -7°C / 19°F
Humidity 60%
Altimeter 30.56" Hg
Pressure 1035 hPa
Elevation 50
METAR EHDV 260255Z AUTO 08016KT 7000 -FZUP SN FEW011/// SCT029/// BKN038/// M00/M07 Q1035 W///H///
Observed Flight Rules
Feb-26 @ 02:55 UTC
(38 minutes ago)
MVFR
Wind Visibility
80° at 16 knots 7,001 meters
Clouds
  • Few at 1,100' AGL
  • Scattered at 2,900' AGL
  • Broken at 3,800' AGL
Conditions
  • Snow
  • Unknown precipitation
Temperature Dewpoint
0°C / 32°F -7°C / 19°F
Humidity Altimeter Pressure
60% 30.56" Hg 1035 hPa